createdAt,value
2018-11-04T00:02:18.175Z,100882.00
2018-11-04T00:04:45.697Z,100892.00
2018-11-04T00:07:13.235Z,100877.00
2018-11-04T00:09:40.757Z,100878.00
2018-11-04T00:12:08.300Z,100878.00
2018-11-04T00:14:35.824Z,100875.00
2018-11-04T00:17:03.397Z,100860.00
2018-11-04T00:19:30.919Z,100867.00
2018-11-04T00:21:58.452Z,100864.00
2018-11-04T00:24:25.986Z,100865.00
2018-11-04T00:26:53.562Z,100861.00
2018-11-04T00:29:21.059Z,100865.00
2018-11-04T00:31:48.596Z,100874.00
2018-11-04T00:34:16.136Z,100866.00
2018-11-04T00:36:43.688Z,100870.00
2018-11-04T00:39:11.509Z,100870.00
2018-11-04T00:41:39.044Z,100868.00
2018-11-04T00:44:06.806Z,100867.00
2018-11-04T00:46:34.348Z,100867.00
2018-11-04T00:49:01.877Z,100859.00
2018-11-04T00:51:29.420Z,100863.00
2018-11-04T00:53:56.945Z,100865.00
2018-11-04T00:56:24.484Z,100855.00
2018-11-04T00:58:52.014Z,100855.00
2018-11-04T01:01:19.538Z,100853.00
2018-11-04T01:03:47.055Z,100847.00
2018-11-04T01:06:14.605Z,100852.00
2018-11-04T01:08:42.129Z,100839.00
2018-11-04T01:11:09.662Z,100848.00
2018-11-04T01:13:37.180Z,100848.00
2018-11-04T01:16:04.716Z,100835.00
2018-11-04T01:18:32.226Z,100832.00
2018-11-04T01:20:59.753Z,100831.00
2018-11-04T01:23:27.285Z,100828.00
2018-11-04T01:25:54.810Z,100820.00
2018-11-04T01:28:22.326Z,100823.00
2018-11-04T01:30:49.872Z,100817.00
2018-11-04T01:33:17.412Z,100813.00
2018-11-04T01:35:44.936Z,100806.00
2018-11-04T01:38:12.456Z,100806.00
2018-11-04T01:40:39.989Z,100806.00
2018-11-04T01:43:07.529Z,100814.00
2018-11-04T01:45:35.062Z,100805.00
2018-11-04T01:48:02.596Z,100797.00
2018-11-04T01:50:30.112Z,100801.00
2018-11-04T01:52:57.627Z,100796.00
2018-11-04T01:55:25.152Z,100795.00
2018-11-04T01:57:52.676Z,100794.00
2018-11-04T02:00:20.203Z,100789.00
2018-11-04T02:02:47.735Z,100792.00
2018-11-04T02:05:15.570Z,100785.00
2018-11-04T02:07:43.083Z,100769.00
2018-11-04T02:10:12.952Z,100768.00
2018-11-04T02:12:40.484Z,100757.00
2018-11-04T02:15:10.142Z,100751.00
2018-11-04T02:17:37.893Z,100746.00
2018-11-04T02:20:06.978Z,100760.00
2018-11-04T02:22:34.522Z,100762.00
2018-11-04T02:25:02.044Z,100747.00
2018-11-04T02:27:29.616Z,100758.00
2018-11-04T02:29:57.133Z,100742.00
2018-11-04T02:32:24.684Z,100747.00
2018-11-04T02:34:52.221Z,100742.00
2018-11-04T02:37:19.756Z,100741.00
2018-11-04T02:39:47.264Z,100739.00
2018-11-04T02:42:14.792Z,100725.00
2018-11-04T02:44:42.316Z,100727.00
2018-11-04T02:47:09.981Z,100733.00
2018-11-04T02:49:37.437Z,100714.00
2018-11-04T02:52:05.129Z,100716.00
2018-11-04T02:54:32.649Z,100712.00
2018-11-04T02:57:00.176Z,100718.00
2018-11-04T02:59:27.939Z,100714.00
2018-11-04T03:01:55.507Z,100712.00
2018-11-04T03:04:23.157Z,100705.00
2018-11-04T03:06:50.684Z,100709.00
2018-11-04T03:09:18.204Z,100703.00
2018-11-04T03:11:45.753Z,100712.00
2018-11-04T03:14:13.305Z,100696.00
2018-11-04T03:16:40.959Z,100705.00
2018-11-04T03:19:08.535Z,100694.00
2018-11-04T03:21:36.072Z,100686.00
2018-11-04T03:24:03.606Z,100685.00
2018-11-04T03:26:31.125Z,100689.00
2018-11-04T03:28:58.647Z,100686.00
2018-11-04T03:31:26.319Z,100686.00
2018-11-04T03:33:53.861Z,100679.00
2018-11-04T03:36:21.391Z,100679.00
2018-11-04T03:38:48.941Z,100662.00
2018-11-04T03:41:16.488Z,100671.00
2018-11-04T03:43:44.037Z,100664.00
2018-11-04T03:46:11.584Z,100660.00
2018-11-04T03:48:39.132Z,100669.00
2018-11-04T03:51:06.648Z,100663.00
2018-11-04T03:53:34.194Z,100659.00
2018-11-04T03:56:01.730Z,100659.00
2018-11-04T03:58:29.263Z,100655.00
2018-11-04T04:00:56.776Z,100653.00
2018-11-04T04:03:24.311Z,100651.00
2018-11-04T04:05:51.832Z,100648.00
2018-11-04T04:08:19.868Z,100646.00
2018-11-04T04:10:47.399Z,100638.00
2018-11-04T04:13:14.939Z,100644.00
2018-11-04T04:15:42.460Z,100630.00
2018-11-04T04:18:10.024Z,100626.00
2018-11-04T04:20:37.534Z,100623.00
2018-11-04T04:23:05.080Z,100632.00
2018-11-04T04:25:32.612Z,100626.00
2018-11-04T04:28:00.168Z,100630.00
2018-11-04T04:30:27.693Z,100625.00
2018-11-04T04:32:55.216Z,100621.00
2018-11-04T04:35:22.750Z,100618.00
2018-11-04T04:37:50.275Z,100610.00
2018-11-04T04:40:17.806Z,100616.00
2018-11-04T04:42:45.320Z,100611.00
2018-11-04T04:45:12.849Z,100609.00
2018-11-04T04:47:40.401Z,100599.00
2018-11-04T04:50:07.959Z,100604.00
2018-11-04T04:52:35.484Z,100598.00
2018-11-04T04:55:03.050Z,100594.00
2018-11-04T04:57:30.582Z,100591.00
2018-11-04T04:59:58.280Z,100594.00
2018-11-04T05:02:25.793Z,100574.00
2018-11-04T05:04:53.323Z,100590.00
2018-11-04T05:07:20.850Z,100575.00
2018-11-04T05:09:48.387Z,100571.00
2018-11-04T05:12:15.934Z,100581.00
2018-11-04T05:14:43.445Z,100572.00
2018-11-04T05:17:10.980Z,100575.00
2018-11-04T05:19:38.528Z,100564.00
2018-11-04T05:22:06.304Z,100567.00
2018-11-04T05:24:33.954Z,100567.00
2018-11-04T05:27:01.489Z,100556.00
2018-11-04T05:29:29.016Z,100556.00
2018-11-04T05:31:56.544Z,100567.00
2018-11-04T05:34:24.073Z,100562.00
2018-11-04T05:36:51.583Z,100558.00
2018-11-04T05:39:19.108Z,100560.00
2018-11-04T05:41:46.612Z,100565.00
2018-11-04T05:44:14.156Z,100563.00
2018-11-04T05:46:41.682Z,100559.00
2018-11-04T05:49:09.212Z,100572.00
2018-11-04T05:51:36.740Z,100575.00
2018-11-04T05:54:04.664Z,100575.00
2018-11-04T05:56:32.173Z,100578.00
2018-11-04T05:58:59.703Z,100582.00
2018-11-04T06:01:27.231Z,100589.00
2018-11-04T06:03:54.756Z,100594.00
2018-11-04T06:06:22.274Z,100591.00
2018-11-04T06:08:49.792Z,100591.00
2018-11-04T06:11:17.307Z,100595.00
2018-11-04T06:13:44.832Z,100599.00
2018-11-04T06:16:12.344Z,100595.00
2018-11-04T06:18:39.982Z,100595.00
2018-11-04T06:21:07.537Z,100599.00
2018-11-04T06:23:35.073Z,100591.00
2018-11-04T06:26:02.598Z,100599.00
2018-11-04T06:28:30.144Z,100597.00
2018-11-04T06:30:57.780Z,100602.00
2018-11-04T06:33:25.304Z,100597.00
2018-11-04T06:35:52.837Z,100598.00
2018-11-04T06:38:20.364Z,100602.00
2018-11-04T06:40:47.898Z,100604.00
2018-11-04T06:43:15.421Z,100596.00
2018-11-04T06:45:42.947Z,100596.00
2018-11-04T06:48:10.490Z,100598.00
2018-11-04T06:50:38.007Z,100586.00
2018-11-04T06:53:05.643Z,100592.00
2018-11-04T06:55:33.172Z,100590.00
2018-11-04T06:58:00.721Z,100578.00
2018-11-04T07:00:28.268Z,100592.00
2018-11-04T07:02:55.784Z,100589.00
2018-11-04T07:05:23.312Z,100593.00
2018-11-04T07:07:50.833Z,100594.00
2018-11-04T07:10:18.352Z,100589.00
2018-11-04T07:12:45.872Z,100593.00
2018-11-04T07:15:13.420Z,100580.00
2018-11-04T07:17:40.941Z,100575.00
2018-11-04T07:20:08.782Z,100586.00
2018-11-04T07:22:36.628Z,100580.00
2018-11-04T07:25:05.040Z,100579.00
2018-11-04T07:27:32.551Z,100578.00
2018-11-04T07:30:00.078Z,100586.00
2018-11-04T07:32:27.596Z,100581.00
2018-11-04T07:34:55.132Z,100589.00
2018-11-04T07:37:22.643Z,100574.00
2018-11-04T07:39:50.164Z,100572.00
2018-11-04T07:42:17.675Z,100569.00
2018-11-04T07:44:45.192Z,100582.00
2018-11-04T07:47:12.701Z,100574.00
2018-11-04T07:49:40.211Z,100572.00
2018-11-04T07:52:07.741Z,100569.00
2018-11-04T07:54:35.263Z,100569.00
2018-11-04T07:57:02.830Z,100570.00
2018-11-04T07:59:30.327Z,100555.00
2018-11-04T08:01:57.848Z,100565.00
2018-11-04T08:04:25.348Z,100570.00
2018-11-04T08:06:52.871Z,100561.00
2018-11-04T08:09:20.401Z,100561.00
2018-11-04T08:11:47.904Z,100564.00
2018-11-04T08:14:15.409Z,100562.00
2018-11-04T08:16:42.927Z,100569.00
2018-11-04T08:19:10.448Z,100574.00
2018-11-04T08:21:37.963Z,100570.00
2018-11-04T08:24:05.477Z,100569.00
2018-11-04T08:26:32.984Z,100573.00
2018-11-04T08:29:00.501Z,100555.00
2018-11-04T08:31:28.018Z,100556.00
2018-11-04T08:33:55.536Z,100555.00
2018-11-04T08:36:23.059Z,100549.00
2018-11-04T08:38:50.564Z,100553.00
2018-11-04T08:41:18.068Z,100547.00
2018-11-04T08:43:45.579Z,100546.00
2018-11-04T08:46:13.102Z,100547.00
2018-11-04T08:48:40.632Z,100549.00
2018-11-04T08:51:08.275Z,100544.00
2018-11-04T08:53:35.792Z,100538.00
2018-11-04T08:56:03.321Z,100537.00
2018-11-04T08:58:30.864Z,100533.00
2018-11-04T09:00:58.380Z,100536.00
2018-11-04T09:03:25.885Z,100529.00
2018-11-04T09:05:53.413Z,100534.00
2018-11-04T09:08:20.929Z,100547.00
2018-11-04T09:10:48.447Z,100533.00
2018-11-04T09:13:15.950Z,100534.00
2018-11-04T09:15:43.472Z,100534.00
2018-11-04T09:18:10.988Z,100531.00
2018-11-04T09:20:38.508Z,100526.00
2018-11-04T09:23:06.019Z,100529.00
2018-11-04T09:25:33.544Z,100518.00
2018-11-04T09:28:01.057Z,100522.00
2018-11-04T09:30:28.595Z,100517.00
2018-11-04T09:32:56.107Z,100517.00
2018-11-04T09:35:23.737Z,100528.00
2018-11-04T09:37:51.132Z,100526.00
2018-11-04T09:40:18.646Z,100526.00
2018-11-04T09:42:46.152Z,100520.00
2018-11-04T09:45:13.684Z,100523.00
2018-11-04T09:47:41.197Z,100531.00
2018-11-04T09:50:10.230Z,100529.00
2018-11-04T09:52:37.983Z,100521.00
2018-11-04T09:55:06.573Z,100516.00
2018-11-04T09:57:34.092Z,100504.00
2018-11-04T10:00:01.618Z,100503.00
2018-11-04T10:02:29.128Z,100508.00
2018-11-04T10:04:56.664Z,100489.00
2018-11-04T10:07:24.179Z,100497.00
2018-11-04T10:09:51.670Z,100490.00
2018-11-04T10:12:19.179Z,100482.00
2018-11-04T10:14:46.697Z,100476.00
2018-11-04T10:17:14.216Z,100479.00
2018-11-04T10:19:41.831Z,100470.00
2018-11-04T10:22:09.273Z,100465.00
2018-11-04T10:24:37.576Z,100459.00
2018-11-04T10:27:05.215Z,100448.00
2018-11-04T10:29:32.715Z,100441.00
2018-11-04T10:32:00.217Z,100443.00
2018-11-04T10:34:27.732Z,100443.00
2018-11-04T10:36:55.243Z,100438.00
2018-11-04T10:39:22.751Z,100436.00
2018-11-04T10:41:50.267Z,100440.00
2018-11-04T10:44:17.779Z,100435.00
2018-11-04T10:46:45.307Z,100426.00
2018-11-04T10:49:12.856Z,100424.00
2018-11-04T10:51:40.337Z,100420.00
2018-11-04T10:54:07.853Z,100407.00
2018-11-04T10:56:35.377Z,100411.00
2018-11-04T10:59:02.888Z,100414.00
2018-11-04T11:01:30.416Z,100410.00
2018-11-04T11:03:57.929Z,100412.00
2018-11-04T11:06:25.444Z,100406.00
2018-11-04T11:08:52.968Z,100412.00
2018-11-04T11:11:20.492Z,100406.00
2018-11-04T11:13:48.002Z,100395.00
2018-11-04T11:16:15.516Z,100388.00
2018-11-04T11:18:43.039Z,100391.00
2018-11-04T11:21:10.560Z,100381.00
2018-11-04T11:23:38.059Z,100375.00
2018-11-04T11:26:05.740Z,100375.00
2018-11-04T11:28:33.252Z,100371.00
2018-11-04T11:31:00.768Z,100376.00
2018-11-04T11:33:28.280Z,100372.00
2018-11-04T11:35:55.792Z,100376.00
2018-11-04T11:38:23.314Z,100383.00
2018-11-04T11:40:50.819Z,100363.00
2018-11-04T11:43:18.348Z,100361.00
2018-11-04T11:45:45.859Z,100368.00
2018-11-04T11:48:13.392Z,100359.00
2018-11-04T11:50:40.909Z,100360.00
2018-11-04T11:53:08.438Z,100361.00
2018-11-04T11:55:35.960Z,100352.00
2018-11-04T11:58:03.470Z,100346.00
2018-11-04T12:00:30.973Z,100348.00
2018-11-04T12:02:58.488Z,100348.00
2018-11-04T12:05:25.997Z,100351.00
2018-11-04T12:07:53.516Z,100347.00
2018-11-04T12:10:21.065Z,100340.00
2018-11-04T12:12:48.585Z,100338.00
2018-11-04T12:15:16.099Z,100332.00
2018-11-04T12:17:43.657Z,100319.00
2018-11-04T12:20:11.979Z,100331.00
2018-11-04T12:22:39.644Z,100320.00
2018-11-04T12:25:08.727Z,100313.00
2018-11-04T12:27:36.269Z,100314.00
2018-11-04T12:30:05.094Z,100310.00
2018-11-04T12:32:32.605Z,100311.00
2018-11-04T12:35:00.141Z,100310.00
2018-11-04T12:37:27.670Z,100299.00
2018-11-04T12:39:55.201Z,100296.00
2018-11-04T12:42:22.891Z,100296.00
2018-11-04T12:44:50.384Z,100303.00
2018-11-04T12:47:17.916Z,100297.00
2018-11-04T12:49:45.420Z,100294.00
2018-11-04T12:52:12.988Z,100299.00
2018-11-04T12:54:40.465Z,100291.00
2018-11-04T12:57:07.989Z,100290.00
2018-11-04T12:59:35.513Z,100291.00
2018-11-04T13:02:03.150Z,100293.00
2018-11-04T13:04:30.559Z,100281.00
2018-11-04T13:06:58.096Z,100287.00
2018-11-04T13:09:25.618Z,100278.00
2018-11-04T13:11:53.144Z,100272.00
2018-11-04T13:14:20.656Z,100275.00
2018-11-04T13:16:48.168Z,100270.00
2018-11-04T13:19:15.688Z,100260.00
2018-11-04T13:21:43.195Z,100257.00
2018-11-04T13:24:10.703Z,100255.00
2018-11-04T13:26:38.355Z,100267.00
2018-11-04T13:29:05.877Z,100267.00
2018-11-04T13:31:33.410Z,100258.00
2018-11-04T13:34:01.037Z,100252.00
2018-11-04T13:36:28.540Z,100249.00
2018-11-04T13:38:56.068Z,100245.00
2018-11-04T13:41:23.619Z,100249.00
2018-11-04T13:43:51.280Z,100246.00
2018-11-04T13:46:18.808Z,100240.00
2018-11-04T13:48:46.320Z,100240.00
2018-11-04T13:51:13.831Z,100245.00
2018-11-04T13:53:41.347Z,100245.00
2018-11-04T13:56:09.017Z,100249.00
2018-11-04T13:58:36.532Z,100244.00
2018-11-04T14:01:04.616Z,100227.00
2018-11-04T14:03:32.154Z,100231.00
2018-11-04T14:05:59.676Z,100222.00
2018-11-04T14:08:27.204Z,100233.00
2018-11-04T14:10:54.736Z,100227.00
2018-11-04T14:13:22.335Z,100215.00
2018-11-04T14:15:49.807Z,100216.00
2018-11-04T14:18:17.382Z,100225.00
2018-11-04T14:20:44.903Z,100215.00
2018-11-04T14:23:12.425Z,100220.00
2018-11-04T14:25:39.953Z,100224.00
2018-11-04T14:28:08.077Z,100227.00
2018-11-04T14:30:35.607Z,100226.00
2018-11-04T14:33:03.140Z,100225.00
2018-11-04T14:35:30.668Z,100231.00
2018-11-04T14:37:58.208Z,100219.00
2018-11-04T14:40:25.721Z,100219.00
2018-11-04T14:42:53.288Z,100216.00
2018-11-04T14:45:20.811Z,100216.00
2018-11-04T14:47:48.338Z,100218.00
2018-11-04T14:50:17.430Z,100214.00
2018-11-04T14:52:45.195Z,100216.00
2018-11-04T14:55:12.661Z,100217.00
2018-11-04T14:57:40.188Z,100208.00
2018-11-04T15:00:11.464Z,100208.00
2018-11-04T15:02:39.236Z,100203.00
2018-11-04T15:05:07.812Z,100200.00
2018-11-04T15:07:35.402Z,100193.00
2018-11-04T15:10:02.923Z,100194.00
2018-11-04T15:12:30.801Z,100190.00
2018-11-04T15:14:58.464Z,100188.00
2018-11-04T15:17:25.976Z,100186.00
2018-11-04T15:19:53.687Z,100200.00
2018-11-04T15:22:21.206Z,100200.00
2018-11-04T15:24:48.968Z,100196.00
2018-11-04T15:27:16.440Z,100185.00
2018-11-04T15:29:43.961Z,100179.00
2018-11-04T15:32:11.493Z,100182.00
2018-11-04T15:34:39.272Z,100177.00
2018-11-04T15:37:06.604Z,100174.00
2018-11-04T15:39:34.154Z,100177.00
2018-11-04T15:42:01.687Z,100177.00
2018-11-04T15:44:29.223Z,100180.00
2018-11-04T15:46:56.748Z,100182.00
2018-11-04T15:49:24.279Z,100175.00
2018-11-04T15:51:51.797Z,100178.00
2018-11-04T15:54:19.339Z,100175.00
2018-11-04T15:56:46.878Z,100174.00
2018-11-04T15:59:14.423Z,100184.00
2018-11-04T16:01:41.939Z,100180.00
2018-11-04T16:04:09.531Z,100178.00
2018-11-04T16:06:37.020Z,100184.00
2018-11-04T16:09:07.036Z,100173.00
2018-11-04T16:11:34.684Z,100174.00
2018-11-04T16:14:02.231Z,100178.00
2018-11-04T16:16:29.751Z,100159.00
2018-11-04T16:18:57.488Z,100160.00
2018-11-04T16:21:25.016Z,100165.00
2018-11-04T16:23:52.533Z,100167.00
2018-11-04T16:26:20.052Z,100169.00
2018-11-04T16:28:47.593Z,100166.00
2018-11-04T16:31:15.128Z,100160.00
2018-11-04T16:33:42.699Z,100149.00
2018-11-04T16:36:10.224Z,100156.00
2018-11-04T16:38:37.779Z,100170.00
2018-11-04T16:41:05.348Z,100151.00
2018-11-04T16:43:32.904Z,100161.00
2018-11-04T16:46:00.419Z,100164.00
2018-11-04T16:48:27.932Z,100147.00
2018-11-04T16:50:55.459Z,100155.00
2018-11-04T16:53:22.992Z,100154.00
2018-11-04T16:55:50.516Z,100159.00
2018-11-04T16:58:18.035Z,100148.00
2018-11-04T17:00:45.568Z,100162.00
2018-11-04T17:03:13.089Z,100151.00
2018-11-04T17:05:40.819Z,100153.00
2018-11-04T17:08:08.161Z,100161.00
2018-11-04T17:10:35.683Z,100155.00
2018-11-04T17:13:03.251Z,100162.00
2018-11-04T17:15:30.780Z,100156.00
2018-11-04T17:17:58.344Z,100161.00
2018-11-04T17:20:25.836Z,100151.00
2018-11-04T17:22:53.356Z,100156.00
2018-11-04T17:25:20.880Z,100147.00
2018-11-04T17:27:48.429Z,100138.00
2018-11-04T17:30:17.125Z,100129.00
2018-11-04T17:32:45.190Z,100121.00
2018-11-04T17:35:13.580Z,100119.00
2018-11-04T17:37:41.847Z,100119.00
2018-11-04T17:40:10.436Z,100116.00
2018-11-04T17:42:38.098Z,100108.00
2018-11-04T17:45:07.396Z,100109.00
2018-11-04T17:47:34.908Z,100099.00
2018-11-04T17:50:02.472Z,100105.00
2018-11-04T17:52:30.011Z,100094.00
2018-11-04T17:54:57.534Z,100092.00
2018-11-04T17:57:25.044Z,100089.00
2018-11-04T17:59:52.589Z,100091.00
2018-11-04T18:02:20.120Z,100091.00
2018-11-04T18:04:47.640Z,100098.00
2018-11-04T18:07:15.164Z,100103.00
2018-11-04T18:09:42.679Z,100097.00
2018-11-04T18:12:10.183Z,100100.00
2018-11-04T18:14:37.825Z,100108.00
2018-11-04T18:17:05.514Z,100108.00
2018-11-04T18:19:33.036Z,100099.00
2018-11-04T18:22:00.555Z,100101.00
2018-11-04T18:24:28.071Z,100110.00
2018-11-04T18:26:55.608Z,100114.00
2018-11-04T18:29:23.129Z,100119.00
2018-11-04T18:31:50.648Z,100110.00
2018-11-04T18:34:18.160Z,100114.00
2018-11-04T18:36:45.688Z,100100.00
2018-11-04T18:39:13.203Z,100109.00
2018-11-04T18:41:40.790Z,100105.00
2018-11-04T18:44:08.759Z,100106.00
2018-11-04T18:46:36.292Z,100101.00
2018-11-04T18:49:04.275Z,100101.00
2018-11-04T18:51:31.816Z,100100.00
2018-11-04T18:53:59.339Z,100103.00
2018-11-04T18:56:33.795Z,100103.00
2018-11-04T18:59:01.361Z,100100.00
2018-11-04T19:01:28.857Z,100092.00
2018-11-04T19:03:56.369Z,100106.00
2018-11-04T19:06:23.888Z,100100.00
2018-11-04T19:08:51.410Z,100105.00
2018-11-04T19:11:19.072Z,100105.00
2018-11-04T19:13:46.456Z,100104.00
2018-11-04T19:16:13.977Z,100091.00
2018-11-04T19:18:41.962Z,100083.00
2018-11-04T19:21:09.453Z,100084.00
2018-11-04T19:23:36.968Z,100101.00
2018-11-04T19:26:04.954Z,100105.00
2018-11-04T19:28:32.468Z,100107.00
2018-11-04T19:31:00.012Z,100095.00
2018-11-04T19:33:27.535Z,100090.00
2018-11-04T19:35:55.059Z,100088.00
2018-11-04T19:38:22.576Z,100087.00
2018-11-04T19:40:50.123Z,100087.00
2018-11-04T19:43:18.364Z,100093.00
2018-11-04T19:45:45.890Z,100088.00
2018-11-04T19:48:13.728Z,100087.00
2018-11-04T19:50:41.132Z,100091.00
2018-11-04T19:53:08.677Z,100086.00
2018-11-04T19:55:36.213Z,100089.00
2018-11-04T19:58:04.052Z,100085.00
2018-11-04T20:00:31.570Z,100094.00
2018-11-04T20:02:59.079Z,100085.00
2018-11-04T20:05:26.792Z,100078.00
2018-11-04T20:07:54.113Z,100087.00
2018-11-04T20:10:21.627Z,100092.00
2018-11-04T20:12:55.050Z,100078.00
2018-11-04T20:15:22.573Z,100086.00
2018-11-04T20:17:50.076Z,100096.00
2018-11-04T20:20:20.285Z,100084.00
2018-11-04T20:22:47.676Z,100078.00
2018-11-04T20:25:20.896Z,100083.00
2018-11-04T20:27:48.423Z,100078.00
2018-11-04T20:30:26.279Z,100064.00
2018-11-04T20:32:59.703Z,100060.00
2018-11-04T20:35:27.228Z,100056.00
2018-11-04T20:37:54.735Z,100050.00
2018-11-04T20:40:27.924Z,100042.00
2018-11-04T20:42:55.470Z,100050.00
2018-11-04T20:45:23.018Z,100054.00
2018-11-04T20:48:54.959Z,100056.00
2018-11-04T20:51:22.536Z,100051.00
2018-11-04T20:53:50.007Z,100060.00
2018-11-04T20:56:23.411Z,100046.00
2018-11-04T20:58:50.940Z,100055.00
2018-11-04T21:01:18.456Z,100047.00
2018-11-04T21:03:46.088Z,100052.00
2018-11-04T21:06:17.478Z,100045.00
2018-11-04T21:08:44.917Z,100037.00
2018-11-04T21:11:12.445Z,100033.00
2018-11-04T21:13:39.966Z,100036.00
2018-11-04T21:16:07.580Z,100029.00
2018-11-04T21:18:35.004Z,100033.00
2018-11-04T21:21:02.522Z,100036.00
2018-11-04T21:23:30.036Z,100032.00
2018-11-04T21:25:57.767Z,100015.00
2018-11-04T21:28:25.436Z,100013.00
2018-11-04T21:30:52.800Z,100015.00
2018-11-04T21:33:20.319Z,100014.00
2018-11-04T21:35:47.837Z,100011.00
2018-11-04T21:38:15.345Z,100014.00
2018-11-04T21:40:42.852Z,100002.00
2018-11-04T21:43:10.533Z,100004.00
2018-11-04T21:45:37.884Z,99995.00
2018-11-04T21:48:05.640Z,100001.00
2018-11-04T21:50:34.239Z,99992.00
2018-11-04T21:53:01.768Z,99983.00
2018-11-04T21:55:29.506Z,99993.00
2018-11-04T21:57:56.820Z,99997.00
2018-11-04T22:00:24.365Z,100006.00
2018-11-04T22:02:52.016Z,99988.00
2018-11-04T22:05:19.388Z,99989.00
2018-11-04T22:07:46.897Z,99986.00
2018-11-04T22:10:17.764Z,99994.00
2018-11-04T22:12:45.292Z,99983.00
2018-11-04T22:15:12.805Z,99984.00
2018-11-04T22:17:41.140Z,99994.00
2018-11-04T22:20:10.334Z,99993.00
2018-11-04T22:22:38.108Z,99996.00
2018-11-04T22:25:06.063Z,99991.00
2018-11-04T22:27:33.732Z,100002.00
2018-11-04T22:30:01.252Z,100004.00
2018-11-04T22:32:28.772Z,100009.00
2018-11-04T22:34:56.287Z,100008.00
2018-11-04T22:37:23.788Z,100002.00
2018-11-04T22:39:51.309Z,99992.00
2018-11-04T22:42:18.909Z,99992.00
2018-11-04T22:44:46.352Z,99996.00
2018-11-04T22:47:13.872Z,99993.00
2018-11-04T22:49:41.372Z,99973.00
2018-11-04T22:52:08.888Z,99968.00
2018-11-04T22:54:36.409Z,99961.00
2018-11-04T22:57:04.084Z,99947.00
2018-11-04T22:59:31.605Z,99946.00
2018-11-04T23:01:59.201Z,99947.00
2018-11-04T23:04:32.384Z,99947.00
2018-11-04T23:06:59.920Z,99941.00
2018-11-04T23:09:27.487Z,99949.00
2018-11-04T23:11:55.012Z,99951.00
2018-11-04T23:14:22.592Z,99957.00
2018-11-04T23:16:50.941Z,99957.00
2018-11-04T23:19:19.289Z,99950.00
2018-11-04T23:21:46.832Z,99950.00
2018-11-04T23:24:14.343Z,99940.00
2018-11-04T23:26:41.855Z,99939.00
2018-11-04T23:29:09.363Z,99934.00
2018-11-04T23:31:36.856Z,99935.00
2018-11-04T23:34:04.572Z,99927.00
2018-11-04T23:36:32.081Z,99935.00
2018-11-04T23:38:59.612Z,99939.00
2018-11-04T23:41:27.111Z,99939.00
2018-11-04T23:43:54.623Z,99937.00
2018-11-04T23:46:22.139Z,99945.00
2018-11-04T23:48:49.647Z,99939.00
2018-11-04T23:51:17.156Z,99940.00
2018-11-04T23:53:44.690Z,99938.00
2018-11-04T23:56:12.199Z,99933.00
2018-11-04T23:58:39.716Z,99934.00
